sensor_id;sensor_type;location;lat;lon;timestamp;P1;durP1;ratioP1;P2;durP2;ratioP2
17177;SDS011;8704;52.006;4.374;2023-01-19T00:00:42;5.38;;;2.08;;
17177;SDS011;8704;52.006;4.374;2023-01-19T00:03:10;8.02;;;2.72;;
17177;SDS011;8704;52.006;4.374;2023-01-19T00:05:41;5.93;;;2.97;;
17177;SDS011;8704;52.006;4.374;2023-01-19T00:08:10;5.88;;;2.90;;
17177;SDS011;8704;52.006;4.374;2023-01-19T00:10:41;6.17;;;2.97;;
17177;SDS011;8704;52.006;4.374;2023-01-19T00:13:11;5.55;;;3.55;;
17177;SDS011;8704;52.006;4.374;2023-01-19T00:15:41;7.88;;;4.32;;
17177;SDS011;8704;52.006;4.374;2023-01-19T00:18:10;8.93;;;5.10;;
17177;SDS011;8704;52.006;4.374;2023-01-19T00:20:38;8.13;;;5.85;;
17177;SDS011;8704;52.006;4.374;2023-01-19T00:23:06;14.65;;;5.85;;
17177;SDS011;8704;52.006;4.374;2023-01-19T00:25:35;11.65;;;5.80;;
17177;SDS011;8704;52.006;4.374;2023-01-19T00:28:07;6.82;;;5.32;;
17177;SDS011;8704;52.006;4.374;2023-01-19T00:30:36;7.93;;;6.25;;
17177;SDS011;8704;52.006;4.374;2023-01-19T00:33:06;7.53;;;5.70;;
17177;SDS011;8704;52.006;4.374;2023-01-19T00:35:34;11.57;;;6.80;;
17177;SDS011;8704;52.006;4.374;2023-01-19T00:38:02;9.48;;;5.85;;
17177;SDS011;8704;52.006;4.374;2023-01-19T00:40:30;13.68;;;7.82;;
17177;SDS011;8704;52.006;4.374;2023-01-19T00:42:58;14.00;;;7.07;;
17177;SDS011;8704;52.006;4.374;2023-01-19T00:45:27;10.55;;;7.05;;
17177;SDS011;8704;52.006;4.374;2023-01-19T00:47:55;9.15;;;7.95;;
17177;SDS011;8704;52.006;4.374;2023-01-19T00:50:25;11.93;;;8.65;;
17177;SDS011;8704;52.006;4.374;2023-01-19T00:52:55;7.90;;;7.15;;
17177;SDS011;8704;52.006;4.374;2023-01-19T00:55:26;11.40;;;7.55;;
17177;SDS011;8704;52.006;4.374;2023-01-19T00:57:55;9.20;;;8.15;;
17177;SDS011;8704;52.006;4.374;2023-01-19T01:00:24;10.50;;;9.50;;
17177;SDS011;8704;52.006;4.374;2023-01-19T01:02:52;9.25;;;8.30;;
17177;SDS011;8704;52.006;4.374;2023-01-19T01:05:21;10.55;;;8.88;;
17177;SDS011;8704;52.006;4.374;2023-01-19T01:07:51;14.27;;;8.98;;
17177;SDS011;8704;52.006;4.374;2023-01-19T01:10:20;12.90;;;7.03;;
17177;SDS011;8704;52.006;4.374;2023-01-19T01:12:50;11.98;;;9.40;;
17177;SDS011;8704;52.006;4.374;2023-01-19T01:15:23;10.18;;;8.65;;
17177;SDS011;8704;52.006;4.374;2023-01-19T01:17:52;10.35;;;8.00;;
17177;SDS011;8704;52.006;4.374;2023-01-19T01:20:22;8.63;;;7.68;;
17177;SDS011;8704;52.006;4.374;2023-01-19T01:25:23;9.88;;;8.32;;
17177;SDS011;8704;52.006;4.374;2023-01-19T01:27:53;11.55;;;9.52;;
17177;SDS011;8704;52.006;4.374;2023-01-19T01:30:22;11.50;;;10.50;;
17177;SDS011;8704;52.006;4.374;2023-01-19T01:32:50;13.32;;;8.98;;
17177;SDS011;8704;52.006;4.374;2023-01-19T01:35:18;13.27;;;10.60;;
17177;SDS011;8704;52.006;4.374;2023-01-19T01:37:46;10.82;;;9.70;;
17177;SDS011;8704;52.006;4.374;2023-01-19T01:40:16;12.27;;;9.75;;
17177;SDS011;8704;52.006;4.374;2023-01-19T01:42:45;12.48;;;8.85;;
17177;SDS011;8704;52.006;4.374;2023-01-19T01:45:28;12.23;;;9.32;;
17177;SDS011;8704;52.006;4.374;2023-01-19T01:48:00;7.60;;;6.90;;
17177;SDS011;8704;52.006;4.374;2023-01-19T01:50:32;10.15;;;7.60;;
17177;SDS011;8704;52.006;4.374;2023-01-19T01:53:04;12.70;;;9.18;;
17177;SDS011;8704;52.006;4.374;2023-01-19T01:58:07;11.50;;;6.70;;
17177;SDS011;8704;52.006;4.374;2023-01-19T02:00:37;10.90;;;8.52;;
17177;SDS011;8704;52.006;4.374;2023-01-19T02:03:20;12.52;;;11.18;;
17177;SDS011;8704;52.006;4.374;2023-01-19T02:05:50;13.93;;;8.18;;
17177;SDS011;8704;52.006;4.374;2023-01-19T02:08:24;11.63;;;8.40;;
17177;SDS011;8704;52.006;4.374;2023-01-19T02:11:16;9.07;;;6.60;;
17177;SDS011;8704;52.006;4.374;2023-01-19T02:14:02;10.57;;;8.82;;
17177;SDS011;8704;52.006;4.374;2023-01-19T02:16:31;9.27;;;8.50;;
17177;SDS011;8704;52.006;4.374;2023-01-19T02:18:59;12.32;;;9.73;;
17177;SDS011;8704;52.006;4.374;2023-01-19T02:21:30;10.55;;;9.63;;
17177;SDS011;8704;52.006;4.374;2023-01-19T02:24:04;13.80;;;10.80;;
17177;SDS011;8704;52.006;4.374;2023-01-19T02:26:33;10.43;;;9.27;;
17177;SDS011;8704;52.006;4.374;2023-01-19T02:29:05;9.55;;;8.85;;
17177;SDS011;8704;52.006;4.374;2023-01-19T02:31:35;10.02;;;9.35;;
17177;SDS011;8704;52.006;4.374;2023-01-19T02:34:05;8.23;;;7.63;;
17177;SDS011;8704;52.006;4.374;2023-01-19T02:36:36;10.02;;;9.27;;
17177;SDS011;8704;52.006;4.374;2023-01-19T02:39:08;12.27;;;11.40;;
17177;SDS011;8704;52.006;4.374;2023-01-19T02:41:39;9.05;;;8.43;;
17177;SDS011;8704;52.006;4.374;2023-01-19T02:44:11;9.82;;;9.02;;
17177;SDS011;8704;52.006;4.374;2023-01-19T02:46:40;8.82;;;8.00;;
17177;SDS011;8704;52.006;4.374;2023-01-19T02:49:08;7.75;;;6.68;;
17177;SDS011;8704;52.006;4.374;2023-01-19T02:51:37;9.45;;;8.55;;
17177;SDS011;8704;52.006;4.374;2023-01-19T03:00:07;15.90;;;14.80;;
17177;SDS011;8704;52.006;4.374;2023-01-19T03:02:53;15.95;;;14.55;;
17177;SDS011;8704;52.006;4.374;2023-01-19T03:05:36;16.90;;;15.32;;
17177;SDS011;8704;52.006;4.374;2023-01-19T03:08:13;17.65;;;15.98;;
17177;SDS011;8704;52.006;4.374;2023-01-19T03:10:51;19.08;;;17.85;;
17177;SDS011;8704;52.006;4.374;2023-01-19T03:13:26;22.00;;;20.05;;
17177;SDS011;8704;52.006;4.374;2023-01-19T03:16:02;23.00;;;21.20;;
17177;SDS011;8704;52.006;4.374;2023-01-19T03:18:37;26.08;;;23.80;;
17177;SDS011;8704;52.006;4.374;2023-01-19T03:21:08;25.90;;;23.95;;
17177;SDS011;8704;52.006;4.374;2023-01-19T03:23:39;26.00;;;23.77;;
17177;SDS011;8704;52.006;4.374;2023-01-19T03:26:10;26.45;;;23.40;;
17177;SDS011;8704;52.006;4.374;2023-01-19T03:28:43;27.20;;;25.33;;
17177;SDS011;8704;52.006;4.374;2023-01-19T03:31:12;29.45;;;26.90;;
17177;SDS011;8704;52.006;4.374;2023-01-19T03:33:44;26.35;;;24.77;;
17177;SDS011;8704;52.006;4.374;2023-01-19T03:36:17;23.55;;;21.23;;
17177;SDS011;8704;52.006;4.374;2023-01-19T03:38:48;27.60;;;24.35;;
17177;SDS011;8704;52.006;4.374;2023-01-19T03:41:18;20.75;;;18.52;;
17177;SDS011;8704;52.006;4.374;2023-01-19T03:43:50;22.85;;;13.73;;
17177;SDS011;8704;52.006;4.374;2023-01-19T03:46:19;27.88;;;14.13;;
17177;SDS011;8704;52.006;4.374;2023-01-19T03:48:50;22.52;;;14.88;;
17177;SDS011;8704;52.006;4.374;2023-01-19T03:51:18;20.55;;;13.65;;
17177;SDS011;8704;52.006;4.374;2023-01-19T03:53:48;24.05;;;13.77;;
17177;SDS011;8704;52.006;4.374;2023-01-19T03:56:16;17.83;;;10.93;;
17177;SDS011;8704;52.006;4.374;2023-01-19T03:58:45;14.60;;;9.50;;
17177;SDS011;8704;52.006;4.374;2023-01-19T04:01:15;16.23;;;9.32;;
17177;SDS011;8704;52.006;4.374;2023-01-19T04:03:48;20.33;;;8.15;;
17177;SDS011;8704;52.006;4.374;2023-01-19T04:06:16;27.23;;;10.95;;
17177;SDS011;8704;52.006;4.374;2023-01-19T04:08:46;22.60;;;12.35;;
17177;SDS011;8704;52.006;4.374;2023-01-19T04:11:15;23.13;;;9.88;;
17177;SDS011;8704;52.006;4.374;2023-01-19T04:13:43;22.95;;;9.55;;
17177;SDS011;8704;52.006;4.374;2023-01-19T04:16:11;16.88;;;8.23;;
17177;SDS011;8704;52.006;4.374;2023-01-19T04:18:41;21.58;;;8.20;;
17177;SDS011;8704;52.006;4.374;2023-01-19T04:21:09;20.60;;;8.77;;
17177;SDS011;8704;52.006;4.374;2023-01-19T04:23:37;18.80;;;9.18;;
17177;SDS011;8704;52.006;4.374;2023-01-19T04:26:05;25.65;;;8.20;;
17177;SDS011;8704;52.006;4.374;2023-01-19T04:28:35;19.10;;;7.68;;
17177;SDS011;8704;52.006;4.374;2023-01-19T04:31:03;17.70;;;8.25;;
17177;SDS011;8704;52.006;4.374;2023-01-19T04:33:32;18.73;;;8.07;;
17177;SDS011;8704;52.006;4.374;2023-01-19T04:36:02;18.73;;;9.63;;
17177;SDS011;8704;52.006;4.374;2023-01-19T04:38:31;16.00;;;8.90;;
17177;SDS011;8704;52.006;4.374;2023-01-19T04:40:59;20.35;;;11.15;;
17177;SDS011;8704;52.006;4.374;2023-01-19T04:43:27;15.45;;;6.68;;
17177;SDS011;8704;52.006;4.374;2023-01-19T04:45:55;22.05;;;7.20;;
17177;SDS011;8704;52.006;4.374;2023-01-19T04:48:23;24.02;;;8.93;;
17177;SDS011;8704;52.006;4.374;2023-01-19T04:50:52;16.77;;;8.05;;
17177;SDS011;8704;52.006;4.374;2023-01-19T04:53:21;23.13;;;7.35;;
17177;SDS011;8704;52.006;4.374;2023-01-19T04:55:51;19.05;;;7.70;;
17177;SDS011;8704;52.006;4.374;2023-01-19T04:58:20;19.33;;;9.73;;
17177;SDS011;8704;52.006;4.374;2023-01-19T05:00:48;20.23;;;7.95;;
17177;SDS011;8704;52.006;4.374;2023-01-19T05:03:18;18.42;;;7.63;;
17177;SDS011;8704;52.006;4.374;2023-01-19T05:05:46;16.33;;;6.18;;
17177;SDS011;8704;52.006;4.374;2023-01-19T05:08:14;17.23;;;6.10;;
17177;SDS011;8704;52.006;4.374;2023-01-19T05:10:44;16.25;;;5.18;;
17177;SDS011;8704;52.006;4.374;2023-01-19T05:13:12;18.13;;;5.57;;
17177;SDS011;8704;52.006;4.374;2023-01-19T05:15:40;13.10;;;4.15;;
17177;SDS011;8704;52.006;4.374;2023-01-19T05:18:08;16.05;;;3.85;;
17177;SDS011;8704;52.006;4.374;2023-01-19T05:20:36;17.45;;;4.15;;
17177;SDS011;8704;52.006;4.374;2023-01-19T05:23:05;16.77;;;3.78;;
17177;SDS011;8704;52.006;4.374;2023-01-19T05:25:33;15.50;;;3.55;;
17177;SDS011;8704;52.006;4.374;2023-01-19T05:28:02;20.08;;;3.63;;
17177;SDS011;8704;52.006;4.374;2023-01-19T05:30:30;12.10;;;3.13;;
17177;SDS011;8704;52.006;4.374;2023-01-19T05:32:59;11.88;;;3.33;;
17177;SDS011;8704;52.006;4.374;2023-01-19T05:35:27;17.73;;;4.20;;
17177;SDS011;8704;52.006;4.374;2023-01-19T05:38:01;20.58;;;3.72;;
17177;SDS011;8704;52.006;4.374;2023-01-19T05:40:30;21.80;;;3.67;;
17177;SDS011;8704;52.006;4.374;2023-01-19T05:42:58;14.68;;;3.70;;
17177;SDS011;8704;52.006;4.374;2023-01-19T05:45:31;18.30;;;3.65;;
17177;SDS011;8704;52.006;4.374;2023-01-19T05:48:00;19.98;;;3.88;;
17177;SDS011;8704;52.006;4.374;2023-01-19T05:50:28;22.20;;;3.85;;
17177;SDS011;8704;52.006;4.374;2023-01-19T05:52:56;15.00;;;3.13;;
17177;SDS011;8704;52.006;4.374;2023-01-19T05:55:25;14.18;;;2.80;;
17177;SDS011;8704;52.006;4.374;2023-01-19T05:57:54;9.35;;;2.38;;
17177;SDS011;8704;52.006;4.374;2023-01-19T06:00:22;10.00;;;3.13;;
17177;SDS011;8704;52.006;4.374;2023-01-19T06:02:52;17.50;;;4.00;;
17177;SDS011;8704;52.006;4.374;2023-01-19T06:05:20;14.73;;;3.33;;
17177;SDS011;8704;52.006;4.374;2023-01-19T06:07:48;11.93;;;4.15;;
17177;SDS011;8704;52.006;4.374;2023-01-19T06:10:16;17.50;;;4.43;;
17177;SDS011;8704;52.006;4.374;2023-01-19T06:12:44;16.50;;;3.40;;
17177;SDS011;8704;52.006;4.374;2023-01-19T06:15:13;14.15;;;3.65;;
17177;SDS011;8704;52.006;4.374;2023-01-19T06:17:41;7.80;;;3.00;;
17177;SDS011;8704;52.006;4.374;2023-01-19T06:20:11;14.77;;;3.90;;
17177;SDS011;8704;52.006;4.374;2023-01-19T06:22:40;22.35;;;4.68;;
17177;SDS011;8704;52.006;4.374;2023-01-19T06:25:08;16.13;;;5.65;;
17177;SDS011;8704;52.006;4.374;2023-01-19T06:27:37;13.52;;;7.43;;
17177;SDS011;8704;52.006;4.374;2023-01-19T06:30:06;13.80;;;9.15;;
17177;SDS011;8704;52.006;4.374;2023-01-19T06:32:35;17.58;;;7.75;;
17177;SDS011;8704;52.006;4.374;2023-01-19T06:35:04;12.18;;;7.38;;
17177;SDS011;8704;52.006;4.374;2023-01-19T06:37:34;20.77;;;6.35;;
17177;SDS011;8704;52.006;4.374;2023-01-19T06:40:02;17.17;;;8.05;;
17177;SDS011;8704;52.006;4.374;2023-01-19T06:42:31;16.70;;;7.78;;
17177;SDS011;8704;52.006;4.374;2023-01-19T06:44:59;22.00;;;6.00;;
17177;SDS011;8704;52.006;4.374;2023-01-19T06:47:27;16.13;;;5.80;;
17177;SDS011;8704;52.006;4.374;2023-01-19T06:49:55;18.63;;;5.30;;
17177;SDS011;8704;52.006;4.374;2023-01-19T06:52:24;15.70;;;4.78;;
17177;SDS011;8704;52.006;4.374;2023-01-19T06:54:53;18.13;;;4.60;;
17177;SDS011;8704;52.006;4.374;2023-01-19T06:57:22;16.13;;;4.53;;
17177;SDS011;8704;52.006;4.374;2023-01-19T06:59:51;16.05;;;4.35;;
17177;SDS011;8704;52.006;4.374;2023-01-19T07:02:19;10.57;;;4.47;;
17177;SDS011;8704;52.006;4.374;2023-01-19T07:04:53;16.45;;;3.83;;
17177;SDS011;8704;52.006;4.374;2023-01-19T07:07:21;16.00;;;3.63;;
17177;SDS011;8704;52.006;4.374;2023-01-19T07:09:49;15.45;;;2.70;;
17177;SDS011;8704;52.006;4.374;2023-01-19T07:12:20;20.48;;;3.50;;
17177;SDS011;8704;52.006;4.374;2023-01-19T07:14:48;10.77;;;2.88;;
17177;SDS011;8704;52.006;4.374;2023-01-19T07:17:18;15.50;;;2.67;;
17177;SDS011;8704;52.006;4.374;2023-01-19T07:19:46;10.48;;;2.20;;
17177;SDS011;8704;52.006;4.374;2023-01-19T07:22:14;16.05;;;2.67;;
17177;SDS011;8704;52.006;4.374;2023-01-19T07:24:42;16.20;;;2.95;;
17177;SDS011;8704;52.006;4.374;2023-01-19T07:27:10;13.40;;;2.45;;
17177;SDS011;8704;52.006;4.374;2023-01-19T07:29:40;9.15;;;2.15;;
17177;SDS011;8704;52.006;4.374;2023-01-19T07:32:08;10.50;;;2.20;;
17177;SDS011;8704;52.006;4.374;2023-01-19T07:34:36;13.80;;;2.88;;
17177;SDS011;8704;52.006;4.374;2023-01-19T07:37:04;13.85;;;3.17;;
17177;SDS011;8704;52.006;4.374;2023-01-19T07:39:32;10.95;;;3.58;;
17177;SDS011;8704;52.006;4.374;2023-01-19T07:42:02;17.15;;;3.40;;
17177;SDS011;8704;52.006;4.374;2023-01-19T07:44:30;12.82;;;2.42;;
17177;SDS011;8704;52.006;4.374;2023-01-19T07:46:59;11.00;;;2.30;;
17177;SDS011;8704;52.006;4.374;2023-01-19T07:49:27;13.73;;;2.80;;
17177;SDS011;8704;52.006;4.374;2023-01-19T07:51:55;10.68;;;2.83;;
17177;SDS011;8704;52.006;4.374;2023-01-19T07:54:24;12.63;;;3.13;;
17177;SDS011;8704;52.006;4.374;2023-01-19T07:56:52;10.35;;;2.97;;
17177;SDS011;8704;52.006;4.374;2023-01-19T07:59:21;15.30;;;3.22;;
17177;SDS011;8704;52.006;4.374;2023-01-19T08:01:49;10.55;;;2.78;;
17177;SDS011;8704;52.006;4.374;2023-01-19T08:04:20;10.80;;;2.75;;
17177;SDS011;8704;52.006;4.374;2023-01-19T08:06:48;11.35;;;2.88;;
17177;SDS011;8704;52.006;4.374;2023-01-19T08:09:16;11.13;;;3.08;;
17177;SDS011;8704;52.006;4.374;2023-01-19T08:11:44;13.57;;;3.33;;
17177;SDS011;8704;52.006;4.374;2023-01-19T08:14:12;12.27;;;3.33;;
17177;SDS011;8704;52.006;4.374;2023-01-19T08:16:41;13.13;;;2.60;;
17177;SDS011;8704;52.006;4.374;2023-01-19T08:19:09;14.70;;;3.47;;
17177;SDS011;8704;52.006;4.374;2023-01-19T08:21:39;15.00;;;2.88;;
17177;SDS011;8704;52.006;4.374;2023-01-19T08:24:09;10.07;;;2.83;;
17177;SDS011;8704;52.006;4.374;2023-01-19T08:26:44;16.02;;;2.60;;
17177;SDS011;8704;52.006;4.374;2023-01-19T08:29:14;18.65;;;3.15;;
17177;SDS011;8704;52.006;4.374;2023-01-19T08:31:42;15.07;;;2.53;;
17177;SDS011;8704;52.006;4.374;2023-01-19T08:34:10;11.32;;;2.63;;
17177;SDS011;8704;52.006;4.374;2023-01-19T08:36:40;13.75;;;2.08;;
17177;SDS011;8704;52.006;4.374;2023-01-19T08:39:08;13.82;;;3.13;;
17177;SDS011;8704;52.006;4.374;2023-01-19T08:41:37;11.35;;;2.08;;
17177;SDS011;8704;52.006;4.374;2023-01-19T08:44:05;13.35;;;2.50;;
17177;SDS011;8704;52.006;4.374;2023-01-19T08:46:33;10.63;;;2.92;;
17177;SDS011;8704;52.006;4.374;2023-01-19T08:49:01;14.98;;;2.33;;
17177;SDS011;8704;52.006;4.374;2023-01-19T08:51:29;10.77;;;2.80;;
17177;SDS011;8704;52.006;4.374;2023-01-19T08:53:59;11.57;;;2.85;;
17177;SDS011;8704;52.006;4.374;2023-01-19T08:56:27;9.15;;;2.47;;
17177;SDS011;8704;52.006;4.374;2023-01-19T08:58:55;14.73;;;2.70;;
17177;SDS011;8704;52.006;4.374;2023-01-19T09:01:35;8.18;;;2.20;;
17177;SDS011;8704;52.006;4.374;2023-01-19T09:04:03;10.27;;;2.60;;
17177;SDS011;8704;52.006;4.374;2023-01-19T09:06:32;11.98;;;2.45;;
17177;SDS011;8704;52.006;4.374;2023-01-19T09:09:01;14.20;;;2.70;;
17177;SDS011;8704;52.006;4.374;2023-01-19T09:11:30;8.40;;;2.38;;
17177;SDS011;8704;52.006;4.374;2023-01-19T09:13:58;11.90;;;2.53;;
17177;SDS011;8704;52.006;4.374;2023-01-19T09:16:26;10.73;;;2.15;;
17177;SDS011;8704;52.006;4.374;2023-01-19T09:18:54;9.10;;;2.13;;
17177;SDS011;8704;52.006;4.374;2023-01-19T09:21:23;11.18;;;2.05;;
17177;SDS011;8704;52.006;4.374;2023-01-19T09:23:52;5.93;;;1.60;;
17177;SDS011;8704;52.006;4.374;2023-01-19T09:26:22;7.57;;;1.65;;
17177;SDS011;8704;52.006;4.374;2023-01-19T09:28:50;11.60;;;1.85;;
17177;SDS011;8704;52.006;4.374;2023-01-19T09:31:18;10.65;;;1.88;;
17177;SDS011;8704;52.006;4.374;2023-01-19T09:33:46;11.95;;;1.77;;
17177;SDS011;8704;52.006;4.374;2023-01-19T09:36:15;7.28;;;1.42;;
17177;SDS011;8704;52.006;4.374;2023-01-19T09:38:43;10.25;;;1.58;;
17177;SDS011;8704;52.006;4.374;2023-01-19T09:41:12;6.63;;;1.55;;
17177;SDS011;8704;52.006;4.374;2023-01-19T09:43:47;5.00;;;1.38;;
17177;SDS011;8704;52.006;4.374;2023-01-19T09:46:21;8.48;;;1.33;;
17177;SDS011;8704;52.006;4.374;2023-01-19T09:48:56;5.55;;;1.20;;
17177;SDS011;8704;52.006;4.374;2023-01-19T09:51:31;4.40;;;0.90;;
17177;SDS011;8704;52.006;4.374;2023-01-19T09:54:04;5.75;;;1.13;;
17177;SDS011;8704;52.006;4.374;2023-01-19T09:56:38;4.97;;;1.10;;
17177;SDS011;8704;52.006;4.374;2023-01-19T09:59:19;3.42;;;0.98;;
17177;SDS011;8704;52.006;4.374;2023-01-19T10:04:47;5.68;;;1.10;;
17177;SDS011;8704;52.006;4.374;2023-01-19T10:07:27;4.40;;;1.10;;
17177;SDS011;8704;52.006;4.374;2023-01-19T10:10:11;3.88;;;0.77;;
17177;SDS011;8704;52.006;4.374;2023-01-19T10:12:58;3.95;;;0.98;;
17177;SDS011;8704;52.006;4.374;2023-01-19T10:15:40;3.80;;;0.80;;
17177;SDS011;8704;52.006;4.374;2023-01-19T10:18:15;4.97;;;0.80;;
17177;SDS011;8704;52.006;4.374;2023-01-19T10:20:47;8.05;;;1.35;;
17177;SDS011;8704;52.006;4.374;2023-01-19T10:23:22;5.85;;;1.25;;
17177;SDS011;8704;52.006;4.374;2023-01-19T10:26:07;6.07;;;1.20;;
17177;SDS011;8704;52.006;4.374;2023-01-19T10:28:38;5.45;;;1.27;;
17177;SDS011;8704;52.006;4.374;2023-01-19T10:31:08;4.63;;;0.98;;
17177;SDS011;8704;52.006;4.374;2023-01-19T10:33:38;3.80;;;0.93;;
17177;SDS011;8704;52.006;4.374;2023-01-19T10:36:14;4.22;;;0.95;;
17177;SDS011;8704;52.006;4.374;2023-01-19T10:38:44;5.15;;;1.20;;
17177;SDS011;8704;52.006;4.374;2023-01-19T10:41:16;5.40;;;0.98;;
17177;SDS011;8704;52.006;4.374;2023-01-19T10:43:47;5.18;;;1.38;;
17177;SDS011;8704;52.006;4.374;2023-01-19T10:46:26;6.32;;;1.35;;
17177;SDS011;8704;52.006;4.374;2023-01-19T10:49:00;4.57;;;1.02;;
17177;SDS011;8704;52.006;4.374;2023-01-19T10:51:28;9.25;;;1.50;;
17177;SDS011;8704;52.006;4.374;2023-01-19T10:53:58;4.38;;;1.00;;
17177;SDS011;8704;52.006;4.374;2023-01-19T10:56:31;3.75;;;1.00;;
17177;SDS011;8704;52.006;4.374;2023-01-19T10:59:03;5.75;;;1.30;;
17177;SDS011;8704;52.006;4.374;2023-01-19T11:01:33;5.80;;;1.40;;
17177;SDS011;8704;52.006;4.374;2023-01-19T11:04:17;5.15;;;1.30;;
17177;SDS011;8704;52.006;4.374;2023-01-19T11:06:47;6.35;;;1.38;;
17177;SDS011;8704;52.006;4.374;2023-01-19T11:09:16;3.97;;;0.80;;
17177;SDS011;8704;52.006;4.374;2023-01-19T11:11:47;5.95;;;1.20;;
17177;SDS011;8704;52.006;4.374;2023-01-19T11:14:18;5.00;;;1.00;;
17177;SDS011;8704;52.006;4.374;2023-01-19T11:16:50;3.28;;;0.80;;
17177;SDS011;8704;52.006;4.374;2023-01-19T11:19:25;5.78;;;1.05;;
17177;SDS011;8704;52.006;4.374;2023-01-19T11:22:06;5.38;;;1.17;;
17177;SDS011;8704;52.006;4.374;2023-01-19T11:24:46;7.78;;;1.25;;
17177;SDS011;8704;52.006;4.374;2023-01-19T11:27:16;7.88;;;1.27;;
17177;SDS011;8704;52.006;4.374;2023-01-19T11:29:47;6.95;;;1.10;;
17177;SDS011;8704;52.006;4.374;2023-01-19T11:32:21;5.15;;;1.20;;
17177;SDS011;8704;52.006;4.374;2023-01-19T11:34:52;5.40;;;1.38;;
17177;SDS011;8704;52.006;4.374;2023-01-19T11:37:24;5.05;;;1.20;;
17177;SDS011;8704;52.006;4.374;2023-01-19T11:39:55;6.07;;;1.60;;
17177;SDS011;8704;52.006;4.374;2023-01-19T11:42:24;4.55;;;1.30;;
17177;SDS011;8704;52.006;4.374;2023-01-19T11:44:57;4.82;;;1.35;;
17177;SDS011;8704;52.006;4.374;2023-01-19T11:47:31;7.18;;;1.35;;
17177;SDS011;8704;52.006;4.374;2023-01-19T11:50:04;8.15;;;1.50;;
17177;SDS011;8704;52.006;4.374;2023-01-19T11:52:39;3.83;;;1.00;;
17177;SDS011;8704;52.006;4.374;2023-01-19T11:55:13;5.18;;;1.10;;
17177;SDS011;8704;52.006;4.374;2023-01-19T11:57:47;3.60;;;1.05;;
17177;SDS011;8704;52.006;4.374;2023-01-19T12:00:24;4.80;;;1.20;;
17177;SDS011;8704;52.006;4.374;2023-01-19T12:02:58;4.97;;;1.15;;
17177;SDS011;8704;52.006;4.374;2023-01-19T12:05:33;7.70;;;1.50;;
17177;SDS011;8704;52.006;4.374;2023-01-19T12:08:08;4.55;;;1.27;;
17177;SDS011;8704;52.006;4.374;2023-01-19T12:10:43;5.25;;;0.85;;
17177;SDS011;8704;52.006;4.374;2023-01-19T12:13:16;3.53;;;1.27;;
17177;SDS011;8704;52.006;4.374;2023-01-19T12:15:48;7.25;;;1.45;;
17177;SDS011;8704;52.006;4.374;2023-01-19T12:18:23;4.82;;;1.42;;
17177;SDS011;8704;52.006;4.374;2023-01-19T12:20:54;9.27;;;1.27;;
17177;SDS011;8704;52.006;4.374;2023-01-19T12:23:27;5.82;;;1.52;;
17177;SDS011;8704;52.006;4.374;2023-01-19T12:28:53;3.40;;;1.15;;
17177;SDS011;8704;52.006;4.374;2023-01-19T12:31:26;6.30;;;1.13;;
17177;SDS011;8704;52.006;4.374;2023-01-19T12:33:56;6.88;;;1.60;;
17177;SDS011;8704;52.006;4.374;2023-01-19T12:36:58;5.00;;;1.30;;
17177;SDS011;8704;52.006;4.374;2023-01-19T12:39:29;4.55;;;0.98;;
17177;SDS011;8704;52.006;4.374;2023-01-19T12:42:03;5.30;;;1.40;;
17177;SDS011;8704;52.006;4.374;2023-01-19T12:44:40;5.10;;;1.48;;
17177;SDS011;8704;52.006;4.374;2023-01-19T12:47:18;6.70;;;1.42;;
17177;SDS011;8704;52.006;4.374;2023-01-19T12:49:51;5.25;;;1.00;;
17177;SDS011;8704;52.006;4.374;2023-01-19T12:52:28;4.32;;;1.27;;
17177;SDS011;8704;52.006;4.374;2023-01-19T12:55:00;4.63;;;1.25;;
17177;SDS011;8704;52.006;4.374;2023-01-19T12:57:33;5.82;;;1.08;;
17177;SDS011;8704;52.006;4.374;2023-01-19T13:00:05;4.13;;;1.02;;
17177;SDS011;8704;52.006;4.374;2023-01-19T13:02:53;3.58;;;1.05;;
17177;SDS011;8704;52.006;4.374;2023-01-19T13:08:26;4.60;;;1.30;;
17177;SDS011;8704;52.006;4.374;2023-01-19T13:16:57;4.18;;;1.15;;
17177;SDS011;8704;52.006;4.374;2023-01-19T13:19:34;4.63;;;1.40;;
17177;SDS011;8704;52.006;4.374;2023-01-19T13:25:32;5.35;;;1.50;;
17177;SDS011;8704;52.006;4.374;2023-01-19T13:28:05;5.93;;;1.30;;
17177;SDS011;8704;52.006;4.374;2023-01-19T13:30:35;6.00;;;1.35;;
17177;SDS011;8704;52.006;4.374;2023-01-19T13:33:13;4.47;;;1.27;;
17177;SDS011;8704;52.006;4.374;2023-01-19T13:35:50;6.82;;;1.42;;
17177;SDS011;8704;52.006;4.374;2023-01-19T13:38:20;6.18;;;1.45;;
17177;SDS011;8704;52.006;4.374;2023-01-19T13:40:51;4.05;;;0.90;;
17177;SDS011;8704;52.006;4.374;2023-01-19T13:43:23;5.43;;;1.20;;
17177;SDS011;8704;52.006;4.374;2023-01-19T13:45:55;5.47;;;1.38;;
17177;SDS011;8704;52.006;4.374;2023-01-19T13:48:23;5.90;;;1.42;;
17177;SDS011;8704;52.006;4.374;2023-01-19T13:50:55;4.20;;;1.15;;
17177;SDS011;8704;52.006;4.374;2023-01-19T13:53:29;6.75;;;1.20;;
17177;SDS011;8704;52.006;4.374;2023-01-19T13:56:18;5.43;;;1.25;;
17177;SDS011;8704;52.006;4.374;2023-01-19T13:59:01;7.03;;;1.00;;
17177;SDS011;8704;52.006;4.374;2023-01-19T14:01:36;6.20;;;1.25;;
17177;SDS011;8704;52.006;4.374;2023-01-19T14:06:56;5.93;;;1.33;;
17177;SDS011;8704;52.006;4.374;2023-01-19T14:09:27;4.30;;;1.25;;
17177;SDS011;8704;52.006;4.374;2023-01-19T14:12:16;6.05;;;1.10;;
17177;SDS011;8704;52.006;4.374;2023-01-19T14:14:45;3.65;;;1.00;;
17177;SDS011;8704;52.006;4.374;2023-01-19T14:17:18;2.40;;;0.95;;
17177;SDS011;8704;52.006;4.374;2023-01-19T14:19:49;3.20;;;0.90;;
17177;SDS011;8704;52.006;4.374;2023-01-19T14:22:18;3.33;;;1.05;;
17177;SDS011;8704;52.006;4.374;2023-01-19T14:24:46;3.97;;;1.13;;
17177;SDS011;8704;52.006;4.374;2023-01-19T14:27:17;4.10;;;1.05;;
17177;SDS011;8704;52.006;4.374;2023-01-19T14:29:48;4.18;;;0.90;;
17177;SDS011;8704;52.006;4.374;2023-01-19T14:32:19;6.65;;;1.10;;
17177;SDS011;8704;52.006;4.374;2023-01-19T14:34:49;5.90;;;1.10;;
17177;SDS011;8704;52.006;4.374;2023-01-19T14:37:20;5.03;;;1.00;;
17177;SDS011;8704;52.006;4.374;2023-01-19T14:39:51;5.32;;;1.00;;
17177;SDS011;8704;52.006;4.374;2023-01-19T14:42:27;3.83;;;1.02;;
17177;SDS011;8704;52.006;4.374;2023-01-19T14:44:59;4.65;;;1.35;;
17177;SDS011;8704;52.006;4.374;2023-01-19T14:47:34;5.13;;;1.42;;
17177;SDS011;8704;52.006;4.374;2023-01-19T14:50:05;5.07;;;1.30;;
17177;SDS011;8704;52.006;4.374;2023-01-19T14:52:47;3.72;;;1.25;;
17177;SDS011;8704;52.006;4.374;2023-01-19T14:55:19;4.30;;;1.55;;
17177;SDS011;8704;52.006;4.374;2023-01-19T14:57:53;6.60;;;1.58;;
17177;SDS011;8704;52.006;4.374;2023-01-19T15:00:22;4.10;;;1.15;;
17177;SDS011;8704;52.006;4.374;2023-01-19T15:02:51;3.97;;;1.05;;
17177;SDS011;8704;52.006;4.374;2023-01-19T15:05:19;4.40;;;1.45;;
17177;SDS011;8704;52.006;4.374;2023-01-19T15:07:49;4.68;;;1.40;;
17177;SDS011;8704;52.006;4.374;2023-01-19T15:10:19;5.57;;;1.42;;
17177;SDS011;8704;52.006;4.374;2023-01-19T15:12:49;6.30;;;1.60;;
17177;SDS011;8704;52.006;4.374;2023-01-19T15:15:21;2.85;;;1.30;;
17177;SDS011;8704;52.006;4.374;2023-01-19T15:17:53;4.68;;;1.40;;
17177;SDS011;8704;52.006;4.374;2023-01-19T15:20:22;4.05;;;1.45;;
17177;SDS011;8704;52.006;4.374;2023-01-19T15:22:50;6.68;;;2.00;;
17177;SDS011;8704;52.006;4.374;2023-01-19T15:25:18;4.07;;;1.63;;
17177;SDS011;8704;52.006;4.374;2023-01-19T15:27:48;4.32;;;1.48;;
17177;SDS011;8704;52.006;4.374;2023-01-19T15:30:17;9.20;;;1.60;;
17177;SDS011;8704;52.006;4.374;2023-01-19T15:32:50;6.65;;;1.88;;
17177;SDS011;8704;52.006;4.374;2023-01-19T15:35:18;5.28;;;1.50;;
17177;SDS011;8704;52.006;4.374;2023-01-19T15:37:48;6.38;;;1.85;;
17177;SDS011;8704;52.006;4.374;2023-01-19T15:40:17;8.68;;;1.92;;
17177;SDS011;8704;52.006;4.374;2023-01-19T15:42:48;6.53;;;1.90;;
17177;SDS011;8704;52.006;4.374;2023-01-19T15:48:05;5.25;;;1.83;;
17177;SDS011;8704;52.006;4.374;2023-01-19T15:50:35;4.93;;;1.88;;